sensor_id;sensor_type;location;lat;lon;timestamp;pressure;altitude;pressure_sealevel;temperature;humidity
76866;BME280;66647;52.124;5.416;2023-12-29T08:47:16;100705.16;;;9.04;100.00
76866;BME280;66647;52.124;5.416;2023-12-29T08:49:48;100708.38;;;9.06;100.00
76866;BME280;66647;52.124;5.416;2023-12-29T08:52:35;100705.31;;;9.07;100.00
76866;BME280;66647;52.124;5.416;2023-12-29T08:55:03;100710.13;;;9.10;100.00
76866;BME280;66647;52.124;5.416;2023-12-29T08:57:55;100719.00;;;9.07;100.00
76866;BME280;66647;52.124;5.416;2023-12-29T09:00:21;100718.34;;;9.02;100.00
76866;BME280;66647;52.124;5.416;2023-12-29T09:03:14;100718.47;;;8.97;100.00
76866;BME280;66647;52.124;5.416;2023-12-29T09:05:41;100707.06;;;8.95;100.00
76866;BME280;66647;52.124;5.416;2023-12-29T09:08:14;100706.56;;;8.93;100.00
76866;BME280;66647;52.124;5.416;2023-12-29T09:26:17;100719.31;;;9.06;100.00
76866;BME280;66647;52.124;5.416;2023-12-29T09:28:47;100728.97;;;9.12;100.00
76866;BME280;66647;52.124;5.416;2023-12-29T09:31:14;100737.66;;;9.14;100.00
76866;BME280;66647;52.124;5.416;2023-12-29T09:34:26;100712.41;;;9.17;100.00
76866;BME280;66647;52.124;5.416;2023-12-29T09:36:55;100734.94;;;9.23;100.00
76866;BME280;66647;52.124;5.416;2023-12-29T09:39:21;100745.75;;;9.28;100.00
76866;BME280;66647;52.124;5.416;2023-12-29T09:41:51;100749.13;;;9.33;100.00
76866;BME280;66647;52.124;5.416;2023-12-29T09:44:21;100747.88;;;9.39;100.00
76866;BME280;66647;52.124;5.416;2023-12-29T09:46:58;100746.06;;;9.43;100.00
76866;BME280;66647;52.124;5.416;2023-12-29T09:52:47;100733.69;;;9.55;100.00
76866;BME280;66647;52.124;5.416;2023-12-29T09:55:18;100740.16;;;9.67;100.00
76866;BME280;66647;52.124;5.416;2023-12-29T09:57:47;100735.78;;;9.84;100.00
76866;BME280;66647;52.124;5.416;2023-12-29T10:00:20;100747.03;;;9.99;100.00
76866;BME280;66647;52.124;5.416;2023-12-29T10:02:51;100747.84;;;9.91;100.00
76866;BME280;66647;52.124;5.416;2023-12-29T10:05:18;100732.88;;;9.80;100.00
76866;BME280;66647;52.124;5.416;2023-12-29T10:07:45;100739.66;;;9.74;100.00
76866;BME280;66647;52.124;5.416;2023-12-29T10:10:15;100731.44;;;9.74;100.00
76866;BME280;66647;52.124;5.416;2023-12-29T10:12:47;100743.97;;;9.75;100.00
76866;BME280;66647;52.124;5.416;2023-12-29T10:15:24;100738.66;;;9.78;100.00
76866;BME280;66647;52.124;5.416;2023-12-29T10:20:38;100719.16;;;10.23;100.00
76866;BME280;66647;52.124;5.416;2023-12-29T10:23:42;100740.00;;;10.54;100.00
76866;BME280;66647;52.124;5.416;2023-12-29T10:26:13;100746.16;;;10.42;100.00
76866;BME280;66647;52.124;5.416;2023-12-29T10:28:58;100734.78;;;10.23;100.00
76866;BME280;66647;52.124;5.416;2023-12-29T10:31:25;100741.53;;;10.17;100.00
76866;BME280;66647;52.124;5.416;2023-12-29T10:34:20;100739.91;;;10.16;100.00
76866;BME280;66647;52.124;5.416;2023-12-29T10:36:49;100736.03;;;10.17;100.00
76866;BME280;66647;52.124;5.416;2023-12-29T10:39:16;100734.91;;;10.18;100.00
76866;BME280;66647;52.124;5.416;2023-12-29T10:41:43;100746.72;;;10.27;100.00
76866;BME280;66647;52.124;5.416;2023-12-29T10:44:10;100750.81;;;10.50;100.00
76866;BME280;66647;52.124;5.416;2023-12-29T10:46:37;100744.91;;;10.39;100.00
76866;BME280;66647;52.124;5.416;2023-12-29T10:49:11;100752.00;;;10.32;100.00
76866;BME280;66647;52.124;5.416;2023-12-29T10:51:41;100741.38;;;10.30;100.00
76866;BME280;66647;52.124;5.416;2023-12-29T10:54:20;100748.63;;;10.35;100.00
76866;BME280;66647;52.124;5.416;2023-12-29T10:57:11;100759.75;;;10.30;100.00
76866;BME280;66647;52.124;5.416;2023-12-29T10:59:41;100760.41;;;10.27;100.00
76866;BME280;66647;52.124;5.416;2023-12-29T11:02:11;100761.19;;;10.19;100.00
76866;BME280;66647;52.124;5.416;2023-12-29T11:04:41;100766.84;;;10.14;100.00
76866;BME280;66647;52.124;5.416;2023-12-29T11:07:35;100765.53;;;10.11;100.00
76866;BME280;66647;52.124;5.416;2023-12-29T11:10:12;100778.31;;;10.07;100.00
76866;BME280;66647;52.124;5.416;2023-12-29T11:12:40;100767.34;;;10.07;100.00
76866;BME280;66647;52.124;5.416;2023-12-29T11:15:07;100775.69;;;10.10;100.00
76866;BME280;66647;52.124;5.416;2023-12-29T11:17:36;100770.25;;;10.19;100.00
76866;BME280;66647;52.124;5.416;2023-12-29T11:20:07;100768.63;;;10.27;100.00
76866;BME280;66647;52.124;5.416;2023-12-29T11:22:34;100780.06;;;10.37;100.00
76866;BME280;66647;52.124;5.416;2023-12-29T11:25:00;100778.88;;;10.47;100.00
76866;BME280;66647;52.124;5.416;2023-12-29T11:27:30;100784.69;;;10.54;100.00
76866;BME280;66647;52.124;5.416;2023-12-29T11:29:58;100772.66;;;10.76;100.00
76866;BME280;66647;52.124;5.416;2023-12-29T11:32:48;100783.28;;;10.86;99.64
76866;BME280;66647;52.124;5.416;2023-12-29T11:35:43;100779.06;;;10.89;99.51
76866;BME280;66647;52.124;5.416;2023-12-29T11:41:42;100780.31;;;11.00;97.78
76866;BME280;66647;52.124;5.416;2023-12-29T11:48:03;100774.34;;;10.98;97.30
76866;BME280;66647;52.124;5.416;2023-12-29T11:50:39;100781.28;;;11.04;96.34
76866;BME280;66647;52.124;5.416;2023-12-29T11:53:36;100769.34;;;11.00;96.58
76866;BME280;66647;52.124;5.416;2023-12-29T11:59:26;100768.41;;;10.96;96.17
76866;BME280;66647;52.124;5.416;2023-12-29T12:01:55;100773.88;;;10.96;96.40
76866;BME280;66647;52.124;5.416;2023-12-29T12:04:47;100772.41;;;10.98;95.68
76866;BME280;66647;52.124;5.416;2023-12-29T12:13:50;100770.97;;;11.01;93.89
76866;BME280;66647;52.124;5.416;2023-12-29T12:29:14;100757.63;;;11.41;91.57
76866;BME280;66647;52.124;5.416;2023-12-29T12:32:34;100754.69;;;11.46;91.56
76866;BME280;66647;52.124;5.416;2023-12-29T12:35:03;100761.75;;;11.26;91.90
76866;BME280;66647;52.124;5.416;2023-12-29T12:37:29;100749.38;;;11.20;92.11
76866;BME280;66647;52.124;5.416;2023-12-29T12:40:24;100747.44;;;11.21;93.17
76866;BME280;66647;52.124;5.416;2023-12-29T12:43:19;100755.03;;;11.15;93.39
76866;BME280;66647;52.124;5.416;2023-12-29T12:46:12;100758.31;;;11.08;93.49
76866;BME280;66647;52.124;5.416;2023-12-29T13:06:10;100745.72;;;11.07;95.04
76866;BME280;66647;52.124;5.416;2023-12-29T13:09:36;100739.50;;;10.98;96.01
76866;BME280;66647;52.124;5.416;2023-12-29T13:13:20;100743.22;;;10.94;95.01
76866;BME280;66647;52.124;5.416;2023-12-29T13:16:16;100744.53;;;10.88;95.58
76866;BME280;66647;52.124;5.416;2023-12-29T13:19:23;100739.25;;;10.83;95.92
76866;BME280;66647;52.124;5.416;2023-12-29T13:21:55;100744.25;;;10.81;96.36
76866;BME280;66647;52.124;5.416;2023-12-29T15:33:50;100659.16;;;9.40;100.00
76866;BME280;66647;52.124;5.416;2023-12-29T15:44:18;100647.72;;;9.21;100.00
76866;BME280;66647;52.124;5.416;2023-12-29T15:50:16;100635.97;;;9.12;100.00
76866;BME280;66647;52.124;5.416;2023-12-29T15:52:42;100645.44;;;9.15;100.00
76866;BME280;66647;52.124;5.416;2023-12-29T15:55:09;100640.63;;;9.12;100.00
76866;BME280;66647;52.124;5.416;2023-12-29T15:57:39;100640.63;;;9.12;100.00
76866;BME280;66647;52.124;5.416;2023-12-29T16:00:09;100633.22;;;9.12;100.00
76866;BME280;66647;52.124;5.416;2023-12-29T16:02:38;100619.88;;;9.10;100.00
76866;BME280;66647;52.124;5.416;2023-12-29T17:44:21;100718.09;;;6.66;100.00
76866;BME280;66647;52.124;5.416;2023-12-29T19:41:09;100808.72;;;6.26;100.00
76866;BME280;66647;52.124;5.416;2023-12-29T19:43:59;100812.97;;;6.32;100.00
